sensor_id;sensor_type;location;lat;lon;timestamp;temperature;humidity
64689;DHT22;62504;46.070;14.492;2023-04-25T00:01:13;11.00;99.90
64689;DHT22;62504;46.070;14.492;2023-04-25T00:03:39;10.90;99.90
64689;DHT22;62504;46.070;14.492;2023-04-25T00:06:06;11.00;99.90
64689;DHT22;62504;46.070;14.492;2023-04-25T00:08:32;10.90;99.90
64689;DHT22;62504;46.070;14.492;2023-04-25T00:10:58;11.00;99.90
64689;DHT22;62504;46.070;14.492;2023-04-25T00:13:24;10.90;99.90
64689;DHT22;62504;46.070;14.492;2023-04-25T00:15:51;10.90;99.90
64689;DHT22;62504;46.070;14.492;2023-04-25T00:18:18;10.90;99.90
64689;DHT22;62504;46.070;14.492;2023-04-25T00:20:44;10.70;99.90
64689;DHT22;62504;46.070;14.492;2023-04-25T00:23:13;10.70;99.90
64689;DHT22;62504;46.070;14.492;2023-04-25T00:25:48;10.80;99.90
64689;DHT22;62504;46.070;14.492;2023-04-25T00:28:14;10.70;99.90
64689;DHT22;62504;46.070;14.492;2023-04-25T00:30:41;10.70;99.90
64689;DHT22;62504;46.070;14.492;2023-04-25T00:33:07;10.80;99.90
64689;DHT22;62504;46.070;14.492;2023-04-25T00:35:33;11.00;99.90
64689;DHT22;62504;46.070;14.492;2023-04-25T00:37:59;11.10;99.90
64689;DHT22;62504;46.070;14.492;2023-04-25T00:40:25;11.10;99.90
64689;DHT22;62504;46.070;14.492;2023-04-25T00:42:54;11.10;99.90
64689;DHT22;62504;46.070;14.492;2023-04-25T00:45:20;11.00;99.90
64689;DHT22;62504;46.070;14.492;2023-04-25T00:47:46;10.90;99.90
64689;DHT22;62504;46.070;14.492;2023-04-25T00:50:13;10.80;99.90
64689;DHT22;62504;46.070;14.492;2023-04-25T00:52:43;10.80;99.90
64689;DHT22;62504;46.070;14.492;2023-04-25T00:55:10;10.80;99.90
64689;DHT22;62504;46.070;14.492;2023-04-25T00:57:36;10.90;99.90
64689;DHT22;62504;46.070;14.492;2023-04-25T01:00:04;11.00;99.90
64689;DHT22;62504;46.070;14.492;2023-04-25T01:02:33;11.00;99.90
64689;DHT22;62504;46.070;14.492;2023-04-25T01:04:59;11.00;99.90
64689;DHT22;62504;46.070;14.492;2023-04-25T01:07:25;11.00;99.90
64689;DHT22;62504;46.070;14.492;2023-04-25T01:09:52;11.00;99.90
64689;DHT22;62504;46.070;14.492;2023-04-25T01:12:18;10.90;99.90
64689;DHT22;62504;46.070;14.492;2023-04-25T01:14:44;10.80;99.90
64689;DHT22;62504;46.070;14.492;2023-04-25T01:17:11;10.80;99.90
64689;DHT22;62504;46.070;14.492;2023-04-25T01:19:36;10.80;99.90
64689;DHT22;62504;46.070;14.492;2023-04-25T01:22:03;10.80;99.90
64689;DHT22;62504;46.070;14.492;2023-04-25T01:24:30;10.90;99.90
64689;DHT22;62504;46.070;14.492;2023-04-25T01:26:57;10.90;99.90
64689;DHT22;62504;46.070;14.492;2023-04-25T01:29:24;10.90;99.90
64689;DHT22;62504;46.070;14.492;2023-04-25T01:31:51;10.90;99.90
64689;DHT22;62504;46.070;14.492;2023-04-25T01:34:17;10.80;99.90
64689;DHT22;62504;46.070;14.492;2023-04-25T01:36:43;10.90;99.90
64689;DHT22;62504;46.070;14.492;2023-04-25T01:39:09;11.00;99.90
64689;DHT22;62504;46.070;14.492;2023-04-25T01:41:35;11.10;99.90
64689;DHT22;62504;46.070;14.492;2023-04-25T01:44:01;10.90;99.90
64689;DHT22;62504;46.070;14.492;2023-04-25T01:46:27;11.00;99.90
64689;DHT22;62504;46.070;14.492;2023-04-25T01:48:53;11.00;99.90
64689;DHT22;62504;46.070;14.492;2023-04-25T01:51:19;10.90;99.90
64689;DHT22;62504;46.070;14.492;2023-04-25T01:53:45;10.80;99.90
64689;DHT22;62504;46.070;14.492;2023-04-25T01:56:10;10.60;99.90
64689;DHT22;62504;46.070;14.492;2023-04-25T01:58:36;10.60;99.90
64689;DHT22;62504;46.070;14.492;2023-04-25T02:01:02;10.60;99.90
64689;DHT22;62504;46.070;14.492;2023-04-25T02:03:28;10.60;99.90
64689;DHT22;62504;46.070;14.492;2023-04-25T02:05:54;10.50;99.90
64689;DHT22;62504;46.070;14.492;2023-04-25T02:08:20;10.50;99.90
64689;DHT22;62504;46.070;14.492;2023-04-25T02:10:46;10.50;99.90
64689;DHT22;62504;46.070;14.492;2023-04-25T02:13:11;10.50;99.90
64689;DHT22;62504;46.070;14.492;2023-04-25T02:15:37;10.70;99.90
64689;DHT22;62504;46.070;14.492;2023-04-25T02:18:02;10.70;99.90
64689;DHT22;62504;46.070;14.492;2023-04-25T02:20:29;10.60;99.90
64689;DHT22;62504;46.070;14.492;2023-04-25T02:22:56;10.50;99.90
64689;DHT22;62504;46.070;14.492;2023-04-25T02:25:21;10.60;99.90
64689;DHT22;62504;46.070;14.492;2023-04-25T02:27:48;10.60;99.90
64689;DHT22;62504;46.070;14.492;2023-04-25T02:30:14;10.60;99.90
64689;DHT22;62504;46.070;14.492;2023-04-25T02:32:40;10.60;99.90
64689;DHT22;62504;46.070;14.492;2023-04-25T02:35:07;10.60;99.90
64689;DHT22;62504;46.070;14.492;2023-04-25T02:37:34;10.60;99.90
64689;DHT22;62504;46.070;14.492;2023-04-25T02:40:00;10.60;99.90
64689;DHT22;62504;46.070;14.492;2023-04-25T02:42:26;10.60;99.90
64689;DHT22;62504;46.070;14.492;2023-04-25T02:44:52;10.70;99.90
64689;DHT22;62504;46.070;14.492;2023-04-25T02:47:18;10.80;99.90
64689;DHT22;62504;46.070;14.492;2023-04-25T02:49:43;10.80;99.90
64689;DHT22;62504;46.070;14.492;2023-04-25T02:52:09;10.60;99.90
64689;DHT22;62504;46.070;14.492;2023-04-25T02:54:35;10.60;99.90
64689;DHT22;62504;46.070;14.492;2023-04-25T02:57:00;10.60;99.90
64689;DHT22;62504;46.070;14.492;2023-04-25T02:59:28;10.60;99.90
64689;DHT22;62504;46.070;14.492;2023-04-25T03:01:53;10.60;99.90
64689;DHT22;62504;46.070;14.492;2023-04-25T03:04:19;10.60;99.90
64689;DHT22;62504;46.070;14.492;2023-04-25T03:06:46;10.70;99.90
64689;DHT22;62504;46.070;14.492;2023-04-25T03:09:12;10.80;99.90
64689;DHT22;62504;46.070;14.492;2023-04-25T03:11:38;10.80;99.90
64689;DHT22;62504;46.070;14.492;2023-04-25T03:14:04;10.70;99.90
64689;DHT22;62504;46.070;14.492;2023-04-25T03:16:30;10.70;99.90
64689;DHT22;62504;46.070;14.492;2023-04-25T03:18:56;10.70;99.90
64689;DHT22;62504;46.070;14.492;2023-04-25T03:21:22;10.60;99.90
64689;DHT22;62504;46.070;14.492;2023-04-25T03:23:48;10.60;99.90
64689;DHT22;62504;46.070;14.492;2023-04-25T03:26:14;10.70;99.90
64689;DHT22;62504;46.070;14.492;2023-04-25T03:28:39;10.70;99.90
64689;DHT22;62504;46.070;14.492;2023-04-25T03:31:05;10.70;99.90
64689;DHT22;62504;46.070;14.492;2023-04-25T03:33:31;10.70;99.90
64689;DHT22;62504;46.070;14.492;2023-04-25T03:35:57;10.60;99.90
64689;DHT22;62504;46.070;14.492;2023-04-25T03:38:23;10.60;99.90
64689;DHT22;62504;46.070;14.492;2023-04-25T03:40:51;10.60;99.90
64689;DHT22;62504;46.070;14.492;2023-04-25T03:43:17;10.70;99.90
64689;DHT22;62504;46.070;14.492;2023-04-25T03:45:42;10.50;99.90
64689;DHT22;62504;46.070;14.492;2023-04-25T03:48:08;10.50;99.90
64689;DHT22;62504;46.070;14.492;2023-04-25T03:50:34;10.60;99.90
64689;DHT22;62504;46.070;14.492;2023-04-25T03:52:59;10.70;99.90
64689;DHT22;62504;46.070;14.492;2023-04-25T03:55:25;10.70;99.90
64689;DHT22;62504;46.070;14.492;2023-04-25T03:57:51;10.60;99.90
64689;DHT22;62504;46.070;14.492;2023-04-25T04:00:16;10.70;99.90
64689;DHT22;62504;46.070;14.492;2023-04-25T04:02:42;10.80;99.90
64689;DHT22;62504;46.070;14.492;2023-04-25T04:05:08;10.80;99.90
64689;DHT22;62504;46.070;14.492;2023-04-25T04:07:37;10.80;99.90
64689;DHT22;62504;46.070;14.492;2023-04-25T04:10:11;10.70;99.90
64689;DHT22;62504;46.070;14.492;2023-04-25T04:12:37;10.80;99.90
64689;DHT22;62504;46.070;14.492;2023-04-25T04:15:04;10.70;99.90
64689;DHT22;62504;46.070;14.492;2023-04-25T04:17:30;10.80;99.90
64689;DHT22;62504;46.070;14.492;2023-04-25T04:19:56;10.80;99.90
64689;DHT22;62504;46.070;14.492;2023-04-25T04:22:22;10.80;99.90
64689;DHT22;62504;46.070;14.492;2023-04-25T04:24:48;10.90;99.90
64689;DHT22;62504;46.070;14.492;2023-04-25T04:27:18;10.80;99.90
64689;DHT22;62504;46.070;14.492;2023-04-25T04:29:45;10.80;99.90
64689;DHT22;62504;46.070;14.492;2023-04-25T04:32:12;10.80;99.90
64689;DHT22;62504;46.070;14.492;2023-04-25T04:34:38;10.70;99.90
64689;DHT22;62504;46.070;14.492;2023-04-25T04:37:04;10.60;99.90
64689;DHT22;62504;46.070;14.492;2023-04-25T04:39:30;10.60;99.90
64689;DHT22;62504;46.070;14.492;2023-04-25T04:41:56;10.70;99.90
64689;DHT22;62504;46.070;14.492;2023-04-25T04:44:22;10.70;99.90
64689;DHT22;62504;46.070;14.492;2023-04-25T04:46:48;10.80;99.90
64689;DHT22;62504;46.070;14.492;2023-04-25T04:49:13;10.80;99.90
64689;DHT22;62504;46.070;14.492;2023-04-25T04:51:39;10.80;99.90
64689;DHT22;62504;46.070;14.492;2023-04-25T04:54:06;10.80;99.90
64689;DHT22;62504;46.070;14.492;2023-04-25T04:56:32;10.80;99.90
64689;DHT22;62504;46.070;14.492;2023-04-25T04:58:58;10.80;99.90
64689;DHT22;62504;46.070;14.492;2023-04-25T05:01:25;10.80;99.90
64689;DHT22;62504;46.070;14.492;2023-04-25T05:03:51;10.80;99.90
64689;DHT22;62504;46.070;14.492;2023-04-25T05:06:18;10.70;99.90
64689;DHT22;62504;46.070;14.492;2023-04-25T05:08:44;10.70;99.90
64689;DHT22;62504;46.070;14.492;2023-04-25T05:11:10;10.70;99.90
64689;DHT22;62504;46.070;14.492;2023-04-25T05:13:36;10.70;99.90
64689;DHT22;62504;46.070;14.492;2023-04-25T05:16:02;10.80;99.90
64689;DHT22;62504;46.070;14.492;2023-04-25T05:18:28;10.80;99.90
64689;DHT22;62504;46.070;14.492;2023-04-25T05:20:55;10.80;99.90
64689;DHT22;62504;46.070;14.492;2023-04-25T05:23:20;10.80;99.90
64689;DHT22;62504;46.070;14.492;2023-04-25T05:25:46;10.80;99.90
64689;DHT22;62504;46.070;14.492;2023-04-25T05:28:12;10.90;99.90
64689;DHT22;62504;46.070;14.492;2023-04-25T05:30:38;10.90;99.90
64689;DHT22;62504;46.070;14.492;2023-04-25T05:33:04;10.80;99.90
64689;DHT22;62504;46.070;14.492;2023-04-25T05:35:30;10.90;99.90
64689;DHT22;62504;46.070;14.492;2023-04-25T05:37:56;10.90;99.90
64689;DHT22;62504;46.070;14.492;2023-04-25T05:40:21;10.90;99.90
64689;DHT22;62504;46.070;14.492;2023-04-25T05:42:47;10.80;99.90
64689;DHT22;62504;46.070;14.492;2023-04-25T05:45:13;10.70;99.90
64689;DHT22;62504;46.070;14.492;2023-04-25T05:47:38;10.80;99.90
64689;DHT22;62504;46.070;14.492;2023-04-25T05:50:05;10.90;99.90
64689;DHT22;62504;46.070;14.492;2023-04-25T05:52:31;10.90;99.90
64689;DHT22;62504;46.070;14.492;2023-04-25T05:54:56;10.90;99.90
64689;DHT22;62504;46.070;14.492;2023-04-25T05:57:24;10.90;99.90
64689;DHT22;62504;46.070;14.492;2023-04-25T05:59:50;11.00;99.90
64689;DHT22;62504;46.070;14.492;2023-04-25T06:02:17;11.00;99.90
64689;DHT22;62504;46.070;14.492;2023-04-25T06:04:43;11.00;99.90
64689;DHT22;62504;46.070;14.492;2023-04-25T06:07:08;11.00;99.90
64689;DHT22;62504;46.070;14.492;2023-04-25T06:09:34;11.00;99.90
64689;DHT22;62504;46.070;14.492;2023-04-25T06:12:00;11.10;99.90
64689;DHT22;62504;46.070;14.492;2023-04-25T06:14:27;11.10;99.90
64689;DHT22;62504;46.070;14.492;2023-04-25T06:16:52;11.20;99.90
64689;DHT22;62504;46.070;14.492;2023-04-25T06:19:18;11.10;99.90
64689;DHT22;62504;46.070;14.492;2023-04-25T06:21:44;11.20;99.90
64689;DHT22;62504;46.070;14.492;2023-04-25T06:24:09;11.20;99.90
64689;DHT22;62504;46.070;14.492;2023-04-25T06:26:35;11.30;99.90
64689;DHT22;62504;46.070;14.492;2023-04-25T06:29:01;11.30;99.90
64689;DHT22;62504;46.070;14.492;2023-04-25T06:31:27;11.30;99.90
64689;DHT22;62504;46.070;14.492;2023-04-25T06:33:54;11.30;99.90
64689;DHT22;62504;46.070;14.492;2023-04-25T06:36:23;11.40;99.90
64689;DHT22;62504;46.070;14.492;2023-04-25T06:38:53;11.40;99.90
64689;DHT22;62504;46.070;14.492;2023-04-25T06:41:20;11.40;99.90
64689;DHT22;62504;46.070;14.492;2023-04-25T06:43:45;11.40;99.90
64689;DHT22;62504;46.070;14.492;2023-04-25T06:46:11;11.40;99.90
64689;DHT22;62504;46.070;14.492;2023-04-25T06:48:37;11.50;99.90
64689;DHT22;62504;46.070;14.492;2023-04-25T06:51:03;11.50;99.90
64689;DHT22;62504;46.070;14.492;2023-04-25T06:53:29;11.50;99.90
64689;DHT22;62504;46.070;14.492;2023-04-25T06:55:54;11.50;99.90
64689;DHT22;62504;46.070;14.492;2023-04-25T06:58:20;11.60;99.90
64689;DHT22;62504;46.070;14.492;2023-04-25T07:00:45;11.80;99.90
64689;DHT22;62504;46.070;14.492;2023-04-25T07:03:11;11.80;99.90
64689;DHT22;62504;46.070;14.492;2023-04-25T07:05:37;11.80;99.90
64689;DHT22;62504;46.070;14.492;2023-04-25T07:08:03;11.80;99.90
64689;DHT22;62504;46.070;14.492;2023-04-25T07:10:28;11.60;99.90
64689;DHT22;62504;46.070;14.492;2023-04-25T07:12:54;11.60;99.90
64689;DHT22;62504;46.070;14.492;2023-04-25T07:15:20;11.70;99.90
64689;DHT22;62504;46.070;14.492;2023-04-25T07:17:45;11.60;99.90
64689;DHT22;62504;46.070;14.492;2023-04-25T07:20:11;11.70;99.90
64689;DHT22;62504;46.070;14.492;2023-04-25T07:22:37;11.70;99.90
64689;DHT22;62504;46.070;14.492;2023-04-25T07:25:03;11.70;99.90
64689;DHT22;62504;46.070;14.492;2023-04-25T07:27:30;11.90;99.90
64689;DHT22;62504;46.070;14.492;2023-04-25T07:29:56;12.10;99.90
64689;DHT22;62504;46.070;14.492;2023-04-25T07:32:21;12.10;99.90
64689;DHT22;62504;46.070;14.492;2023-04-25T07:34:47;12.30;99.90
64689;DHT22;62504;46.070;14.492;2023-04-25T07:37:13;12.30;99.90
64689;DHT22;62504;46.070;14.492;2023-04-25T07:39:39;12.20;99.90
64689;DHT22;62504;46.070;14.492;2023-04-25T07:42:05;12.30;99.90
64689;DHT22;62504;46.070;14.492;2023-04-25T07:44:34;12.30;99.90
64689;DHT22;62504;46.070;14.492;2023-04-25T07:47:05;12.30;99.90
64689;DHT22;62504;46.070;14.492;2023-04-25T07:49:35;12.20;99.90
64689;DHT22;62504;46.070;14.492;2023-04-25T07:52:01;12.30;99.90
64689;DHT22;62504;46.070;14.492;2023-04-25T07:54:27;12.40;99.90
64689;DHT22;62504;46.070;14.492;2023-04-25T07:56:53;12.50;99.90
64689;DHT22;62504;46.070;14.492;2023-04-25T07:59:19;12.50;99.90
64689;DHT22;62504;46.070;14.492;2023-04-25T08:01:44;12.80;99.90
64689;DHT22;62504;46.070;14.492;2023-04-25T08:04:10;12.60;99.90
64689;DHT22;62504;46.070;14.492;2023-04-25T08:06:36;12.40;99.90
64689;DHT22;62504;46.070;14.492;2023-04-25T08:09:02;12.60;99.90
64689;DHT22;62504;46.070;14.492;2023-04-25T08:11:28;12.80;99.90
64689;DHT22;62504;46.070;14.492;2023-04-25T08:13:54;12.80;99.90
64689;DHT22;62504;46.070;14.492;2023-04-25T08:16:19;12.90;99.90
64689;DHT22;62504;46.070;14.492;2023-04-25T08:18:45;13.10;99.90
64689;DHT22;62504;46.070;14.492;2023-04-25T08:21:11;13.30;99.90
64689;DHT22;62504;46.070;14.492;2023-04-25T08:23:37;13.20;99.90
64689;DHT22;62504;46.070;14.492;2023-04-25T08:26:03;13.30;99.90
64689;DHT22;62504;46.070;14.492;2023-04-25T08:28:30;13.60;99.90
64689;DHT22;62504;46.070;14.492;2023-04-25T08:30:56;14.00;99.90
64689;DHT22;62504;46.070;14.492;2023-04-25T08:33:22;14.30;99.90
64689;DHT22;62504;46.070;14.492;2023-04-25T08:35:47;14.60;99.90
64689;DHT22;62504;46.070;14.492;2023-04-25T08:38:13;14.80;99.90
64689;DHT22;62504;46.070;14.492;2023-04-25T08:40:39;14.40;99.90
64689;DHT22;62504;46.070;14.492;2023-04-25T08:43:06;14.40;99.90
64689;DHT22;62504;46.070;14.492;2023-04-25T08:45:39;14.50;99.90
64689;DHT22;62504;46.070;14.492;2023-04-25T08:48:10;14.30;99.90
64689;DHT22;62504;46.070;14.492;2023-04-25T08:50:40;14.30;99.90
64689;DHT22;62504;46.070;14.492;2023-04-25T08:53:12;14.30;99.90
64689;DHT22;62504;46.070;14.492;2023-04-25T08:55:43;14.30;99.90
64689;DHT22;62504;46.070;14.492;2023-04-25T08:58:11;14.40;99.90
64689;DHT22;62504;46.070;14.492;2023-04-25T09:00:38;14.30;99.90
64689;DHT22;62504;46.070;14.492;2023-04-25T09:03:04;14.20;99.90
64689;DHT22;62504;46.070;14.492;2023-04-25T09:05:33;14.40;99.90
64689;DHT22;62504;46.070;14.492;2023-04-25T09:07:59;14.40;99.90
64689;DHT22;62504;46.070;14.492;2023-04-25T09:10:26;14.30;99.90
64689;DHT22;62504;46.070;14.492;2023-04-25T09:13:13;14.30;99.90
64689;DHT22;62504;46.070;14.492;2023-04-25T09:15:56;14.40;99.90
64689;DHT22;62504;46.070;14.492;2023-04-25T09:18:30;14.40;99.90
64689;DHT22;62504;46.070;14.492;2023-04-25T09:21:08;14.30;99.90
64689;DHT22;62504;46.070;14.492;2023-04-25T09:23:45;14.30;99.90
64689;DHT22;62504;46.070;14.492;2023-04-25T09:26:15;14.30;99.90
64689;DHT22;62504;46.070;14.492;2023-04-25T09:28:42;14.40;99.90
64689;DHT22;62504;46.070;14.492;2023-04-25T09:31:10;14.40;99.90
64689;DHT22;62504;46.070;14.492;2023-04-25T09:33:37;14.50;99.90
64689;DHT22;62504;46.070;14.492;2023-04-25T09:36:08;14.70;99.90
64689;DHT22;62504;46.070;14.492;2023-04-25T09:38:42;14.70;99.90
64689;DHT22;62504;46.070;14.492;2023-04-25T09:41:09;14.60;99.90
64689;DHT22;62504;46.070;14.492;2023-04-25T09:43:35;14.60;99.90
64689;DHT22;62504;46.070;14.492;2023-04-25T09:46:01;14.60;99.90
64689;DHT22;62504;46.070;14.492;2023-04-25T09:48:28;14.50;99.90
64689;DHT22;62504;46.070;14.492;2023-04-25T09:53:29;14.70;99.90
64689;DHT22;62504;46.070;14.492;2023-04-25T09:55:55;14.50;99.90
64689;DHT22;62504;46.070;14.492;2023-04-25T09:58:24;14.50;99.90
64689;DHT22;62504;46.070;14.492;2023-04-25T10:00:51;14.60;99.90
64689;DHT22;62504;46.070;14.492;2023-04-25T10:03:17;14.60;99.90
64689;DHT22;62504;46.070;14.492;2023-04-25T10:05:47;14.60;99.90
64689;DHT22;62504;46.070;14.492;2023-04-25T10:08:15;14.70;99.90
64689;DHT22;62504;46.070;14.492;2023-04-25T10:10:42;14.70;99.90
64689;DHT22;62504;46.070;14.492;2023-04-25T10:13:08;14.70;99.90
64689;DHT22;62504;46.070;14.492;2023-04-25T10:15:35;14.60;99.90
64689;DHT22;62504;46.070;14.492;2023-04-25T10:18:02;14.70;99.90
64689;DHT22;62504;46.070;14.492;2023-04-25T10:20:29;14.70;99.90
64689;DHT22;62504;46.070;14.492;2023-04-25T10:22:58;14.60;99.90
64689;DHT22;62504;46.070;14.492;2023-04-25T10:25:28;14.80;99.90
64689;DHT22;62504;46.070;14.492;2023-04-25T10:27:54;14.80;99.90
64689;DHT22;62504;46.070;14.492;2023-04-25T10:30:20;14.70;99.90
64689;DHT22;62504;46.070;14.492;2023-04-25T10:32:46;14.70;99.90
64689;DHT22;62504;46.070;14.492;2023-04-25T10:35:18;14.80;99.90
64689;DHT22;62504;46.070;14.492;2023-04-25T10:38:04;14.80;99.90
64689;DHT22;62504;46.070;14.492;2023-04-25T10:40:34;14.80;99.90
64689;DHT22;62504;46.070;14.492;2023-04-25T10:45:56;14.90;99.90
64689;DHT22;62504;46.070;14.492;2023-04-25T10:48:26;15.00;99.90
64689;DHT22;62504;46.070;14.492;2023-04-25T10:51:07;15.00;99.90
64689;DHT22;62504;46.070;14.492;2023-04-25T10:53:33;15.00;99.90
64689;DHT22;62504;46.070;14.492;2023-04-25T10:56:00;15.00;99.90
64689;DHT22;62504;46.070;14.492;2023-04-25T10:58:26;14.90;99.90
64689;DHT22;62504;46.070;14.492;2023-04-25T11:00:51;14.90;99.90
64689;DHT22;62504;46.070;14.492;2023-04-25T11:03:17;14.90;99.90
64689;DHT22;62504;46.070;14.492;2023-04-25T11:05:47;15.00;99.90
64689;DHT22;62504;46.070;14.492;2023-04-25T11:08:18;14.80;99.90
64689;DHT22;62504;46.070;14.492;2023-04-25T11:10:50;14.90;99.90
64689;DHT22;62504;46.070;14.492;2023-04-25T11:13:15;14.90;99.90
64689;DHT22;62504;46.070;14.492;2023-04-25T11:15:42;15.00;99.90
64689;DHT22;62504;46.070;14.492;2023-04-25T11:18:07;15.00;99.90
64689;DHT22;62504;46.070;14.492;2023-04-25T11:20:33;15.00;99.90
64689;DHT22;62504;46.070;14.492;2023-04-25T11:22:59;15.00;99.90
64689;DHT22;62504;46.070;14.492;2023-04-25T11:25:25;15.10;99.90
64689;DHT22;62504;46.070;14.492;2023-04-25T11:30:22;15.10;99.90
64689;DHT22;62504;46.070;14.492;2023-04-25T11:32:48;15.00;99.90
64689;DHT22;62504;46.070;14.492;2023-04-25T11:35:15;15.00;99.90
64689;DHT22;62504;46.070;14.492;2023-04-25T11:37:44;15.10;99.90
64689;DHT22;62504;46.070;14.492;2023-04-25T11:40:11;15.00;99.90
64689;DHT22;62504;46.070;14.492;2023-04-25T11:42:44;14.90;99.90
64689;DHT22;62504;46.070;14.492;2023-04-25T11:45:10;15.00;99.90
64689;DHT22;62504;46.070;14.492;2023-04-25T11:47:36;15.00;99.90
64689;DHT22;62504;46.070;14.492;2023-04-25T11:50:04;15.00;99.90
64689;DHT22;62504;46.070;14.492;2023-04-25T11:52:44;15.10;99.90
64689;DHT22;62504;46.070;14.492;2023-04-25T11:55:13;15.10;99.90
64689;DHT22;62504;46.070;14.492;2023-04-25T11:57:41;15.20;99.90
64689;DHT22;62504;46.070;14.492;2023-04-25T12:00:14;15.30;99.90
64689;DHT22;62504;46.070;14.492;2023-04-25T12:02:45;15.20;99.90
64689;DHT22;62504;46.070;14.492;2023-04-25T12:05:13;15.10;99.90
64689;DHT22;62504;46.070;14.492;2023-04-25T12:07:39;15.10;99.90
64689;DHT22;62504;46.070;14.492;2023-04-25T12:10:11;15.20;99.90
64689;DHT22;62504;46.070;14.492;2023-04-25T12:12:41;15.20;99.90
64689;DHT22;62504;46.070;14.492;2023-04-25T12:17:41;15.20;99.90
64689;DHT22;62504;46.070;14.492;2023-04-25T12:20:12;15.10;99.90
64689;DHT22;62504;46.070;14.492;2023-04-25T12:22:41;15.10;99.90
64689;DHT22;62504;46.070;14.492;2023-04-25T12:25:55;15.20;99.90
64689;DHT22;62504;46.070;14.492;2023-04-25T12:28:09;15.10;99.90
64689;DHT22;62504;46.070;14.492;2023-04-25T12:33:24;15.20;99.90
64689;DHT22;62504;46.070;14.492;2023-04-25T12:35:50;15.20;99.90
64689;DHT22;62504;46.070;14.492;2023-04-25T12:40:48;15.20;99.90
64689;DHT22;62504;46.070;14.492;2023-04-25T12:43:13;15.20;99.90
64689;DHT22;62504;46.070;14.492;2023-04-25T12:45:39;15.20;99.90
64689;DHT22;62504;46.070;14.492;2023-04-25T12:48:05;15.10;99.90
64689;DHT22;62504;46.070;14.492;2023-04-25T12:50:31;15.00;99.90
64689;DHT22;62504;46.070;14.492;2023-04-25T12:52:57;15.00;99.90
64689;DHT22;62504;46.070;14.492;2023-04-25T12:55:23;15.00;99.90
64689;DHT22;62504;46.070;14.492;2023-04-25T12:57:48;15.10;99.90
64689;DHT22;62504;46.070;14.492;2023-04-25T13:00:14;15.00;99.90
64689;DHT22;62504;46.070;14.492;2023-04-25T13:02:40;15.00;99.90
64689;DHT22;62504;46.070;14.492;2023-04-25T13:05:06;15.00;99.90
64689;DHT22;62504;46.070;14.492;2023-04-25T13:07:32;15.00;99.90
64689;DHT22;62504;46.070;14.492;2023-04-25T13:09:58;15.00;99.90
64689;DHT22;62504;46.070;14.492;2023-04-25T13:12:24;14.90;99.90
64689;DHT22;62504;46.070;14.492;2023-04-25T13:14:50;14.90;99.90
64689;DHT22;62504;46.070;14.492;2023-04-25T13:17:15;15.00;99.90
64689;DHT22;62504;46.070;14.492;2023-04-25T13:19:41;15.00;99.90
64689;DHT22;62504;46.070;14.492;2023-04-25T13:22:07;14.90;99.90
64689;DHT22;62504;46.070;14.492;2023-04-25T13:24:32;15.00;99.90
64689;DHT22;62504;46.070;14.492;2023-04-25T13:26:58;15.00;99.90
64689;DHT22;62504;46.070;14.492;2023-04-25T13:29:24;15.00;99.90
64689;DHT22;62504;46.070;14.492;2023-04-25T13:31:49;15.10;99.90
64689;DHT22;62504;46.070;14.492;2023-04-25T13:34:15;15.10;99.90
64689;DHT22;62504;46.070;14.492;2023-04-25T13:36:41;15.10;99.90
64689;DHT22;62504;46.070;14.492;2023-04-25T13:39:06;15.10;99.90
64689;DHT22;62504;46.070;14.492;2023-04-25T13:41:32;15.10;99.90
64689;DHT22;62504;46.070;14.492;2023-04-25T13:43:58;15.20;99.90
64689;DHT22;62504;46.070;14.492;2023-04-25T13:46:23;15.20;99.90
64689;DHT22;62504;46.070;14.492;2023-04-25T13:48:49;15.00;99.90
64689;DHT22;62504;46.070;14.492;2023-04-25T13:51:15;15.20;99.90
64689;DHT22;62504;46.070;14.492;2023-04-25T13:53:43;15.20;99.90
64689;DHT22;62504;46.070;14.492;2023-04-25T13:56:09;15.20;99.90
64689;DHT22;62504;46.070;14.492;2023-04-25T13:58:36;15.30;99.90
64689;DHT22;62504;46.070;14.492;2023-04-25T14:01:02;15.20;99.90
64689;DHT22;62504;46.070;14.492;2023-04-25T14:03:28;15.20;99.90
64689;DHT22;62504;46.070;14.492;2023-04-25T14:05:55;15.20;99.90
64689;DHT22;62504;46.070;14.492;2023-04-25T14:08:21;15.20;99.90
64689;DHT22;62504;46.070;14.492;2023-04-25T14:10:46;15.30;99.90
64689;DHT22;62504;46.070;14.492;2023-04-25T14:13:12;15.30;99.90
64689;DHT22;62504;46.070;14.492;2023-04-25T14:15:38;15.40;99.90
64689;DHT22;62504;46.070;14.492;2023-04-25T14:18:03;15.40;99.90
64689;DHT22;62504;46.070;14.492;2023-04-25T14:20:29;15.40;99.90
64689;DHT22;62504;46.070;14.492;2023-04-25T14:22:55;15.40;99.90
64689;DHT22;62504;46.070;14.492;2023-04-25T14:25:24;15.40;99.90
64689;DHT22;62504;46.070;14.492;2023-04-25T14:27:50;15.30;99.90
64689;DHT22;62504;46.070;14.492;2023-04-25T14:30:20;15.30;99.90
64689;DHT22;62504;46.070;14.492;2023-04-25T14:32:46;15.30;99.90
64689;DHT22;62504;46.070;14.492;2023-04-25T14:35:12;15.40;99.90
64689;DHT22;62504;46.070;14.492;2023-04-25T14:37:37;15.40;99.90
64689;DHT22;62504;46.070;14.492;2023-04-25T14:40:04;15.40;99.90
64689;DHT22;62504;46.070;14.492;2023-04-25T14:42:30;15.40;99.90
64689;DHT22;62504;46.070;14.492;2023-04-25T14:44:57;15.50;99.90
64689;DHT22;62504;46.070;14.492;2023-04-25T14:47:22;15.50;99.90
64689;DHT22;62504;46.070;14.492;2023-04-25T14:49:48;15.60;99.90
64689;DHT22;62504;46.070;14.492;2023-04-25T14:52:22;15.40;99.90
64689;DHT22;62504;46.070;14.492;2023-04-25T14:54:48;15.40;99.90
64689;DHT22;62504;46.070;14.492;2023-04-25T14:57:14;15.50;99.90
64689;DHT22;62504;46.070;14.492;2023-04-25T14:59:39;15.60;99.90
64689;DHT22;62504;46.070;14.492;2023-04-25T15:02:05;15.60;99.90
64689;DHT22;62504;46.070;14.492;2023-04-25T15:04:31;15.50;99.90
64689;DHT22;62504;46.070;14.492;2023-04-25T15:06:57;15.50;99.90
64689;DHT22;62504;46.070;14.492;2023-04-25T15:09:22;15.40;99.90
64689;DHT22;62504;46.070;14.492;2023-04-25T15:11:49;15.50;99.90
64689;DHT22;62504;46.070;14.492;2023-04-25T15:14:17;15.50;99.90
64689;DHT22;62504;46.070;14.492;2023-04-25T15:16:42;15.50;99.90
64689;DHT22;62504;46.070;14.492;2023-04-25T15:19:08;15.50;99.90
64689;DHT22;62504;46.070;14.492;2023-04-25T15:21:34;15.50;99.90
64689;DHT22;62504;46.070;14.492;2023-04-25T15:24:00;15.40;99.90
64689;DHT22;62504;46.070;14.492;2023-04-25T15:26:27;15.40;99.90
64689;DHT22;62504;46.070;14.492;2023-04-25T15:28:52;15.40;99.90